PINE FLAT DAM (PNF)

Elevation: 970' · KINGS R basin · Operator: US Army Corps of Engineers

Provisional data, subject to change.
Query executed Wednesday at 14:42:07   clock

Select a sensor type for a plot of data.
Note: Reservoir Flows are daily averages.

Earlier

Date RES ELE    STORAGE    RES CHG    TOC STO    ABV TOC    OUTFLOW    INFLOW    FNF    PPT INC    PPTINC4    TEMP MN    TEMP MX    WINDLEN    EVP PAN   
 FEET   AF   AF   AF   AF   CFS   CFS   CFS   INCHES   INCHES   DEG F   DEG F   MILES   INCHES  
05/30/2016 880.19 627352 823 905780 -278428 3601 4054 4847 0.00 0.01 -- -- 54 0.29
05/31/2016 880.62 629320 1968 905736 -276416 4051 5083 6184 0.01 0.00 -- -- 48 0.29
06/01/2016 881.47 633220 3900 878801 -266408 4161 6169 7054 0.01 0.00 -- -- 50 0.30
06/02/2016 882.36 637317 4097 874747 -256869 4288 6394 7240 0.00 0.00 -- -- 57 0.29
06/03/2016 883.21 641243 3926 869903 -228660 4367 6387 8188 0.00 0.00 -- -- 51 0.30
06/04/2016 883.83 644115 2872 865607 -221492 4958 6447 7510 0.01 0.00 -- -- 49 0.30
06/05/2016 884.37 646621 2506 861252 -214630 5002 6306 7432 0.00 0.00 -- -- 45 0.29
06/06/2016 884.76 648435 1814 856693 -208258 5199 6155 7214 0.03 0.00 -- -- 53 0.30
06/07/2016 885.15 650251 1816 752446 -202083 5336 6294 7128 0.00 0.00 -- -- 50 0.30
06/08/2016 885.46 651697 1446 748144 -- 5345 6114 6953 0.00 0.00 -- -- 56 0.28
06/09/2016 885.73 652958 1261 744361 -91403 5218 5889 5557 0.00 0.00 -- -- 50 0.25
06/10/2016 885.65 652584 -374 739137 -- 5158 5001 5195 0.00 0.00 -- -- 48 0.22
06/11/2016 885.33 651091 -1493 733008 -81917 5100 4377 4753 0.00 0.00 -- -- 49 0.21
06/12/2016 885.08 649925 -1166 726808 -76883 5092 4534 5306 0.02 0.00 -- -- 48 0.21
06/13/2016 884.81 648668 -1257 720904 -72236 5028 4433 4807 0.01 0.00 -- -- 49 0.27
06/14/2016 884.25 646064 -2604 714271 -68207 4988 3714 3946 0.00 0.00 -- -- 64 0.27
06/15/2016 883.65 643280 -2784 926214 -282934 4990 3621 3922 0.00 0.00 -- -- 60 0.25
06/16/2016 882.90 639810 -3470 931910 -292100 4990 3275 3267 e 0.00 0.00 -- -- 55 0.25
06/17/2016 882.08 636027 -3783 936136 -300110 4998 3127 3731 0.00 0.00 -- -- 44 0.26
06/18/2016 881.19 631934 -4093 940625 -308691 5023 2997 3372 0.00 0.00 -- -- 58 0.27
06/19/2016 880.24 627581 -4353 945315 -317734 5106 2952 2865 0.00 0.00 -- -- 53 0.29
06/20/2016 879.38 623653 -3928 950892 -327239 5192 3254 2409 0.00 0.00 -- -- 55 0.30
06/21/2016 878.73 620694 -2959 955919 -335225 5216 3766 4410 0.00 0.00 -- -- 56 0.31
06/22/2016 878.08 617742 -2952 962444 -344702 5311 3866 3059 0.00 0.00 -- -- 58 0.31
06/23/2016 877.35 614435 -3307 967693 -353258 5355 3728 3996 0.00 0.00 -- -- 54 0.30
06/24/2016 876.34 609875 -4560 972247 -362372 5377 3118 3462 0.00 0.00 -- -- 60 0.29
06/25/2016 875.26 605019 -4856 977675 -- 5329 2920 2064 0.00 0.00 -- -- 49 0.29
06/26/2016 874.12 599915 -5104 982384 -- 5329 2796 2620 0.00 0.00 -- -- 58 0.29
06/27/2016 873.01 594967 -4948 986755 -391788 5333 2880 3121 0.01 0.00 -- -- 53 0.31
06/28/2016 871.89 589996 -4971 992074 -402078 5338 2867 2125 0.00 0.00 -- -- 48 0.27
06/29/2016 -- -- -- -- -- -- -- -- -- 0.00 -- -- -- --

Later | Latest

Warning! This data is preliminary and subject to revision.

Show PNF Map | Plot PNF Data | 1 Month PNF Data | Real-Time PNF Data | PNF Info